createdAt,value
2023-03-11T00:00:28.113Z,0.40
2023-03-11T00:02:57.002Z,0.43
2023-03-11T00:05:29.854Z,0.47
2023-03-11T00:07:57.840Z,0.40
2023-03-11T00:10:29.981Z,0.40
2023-03-11T00:12:58.415Z,0.50
2023-03-11T00:15:25.989Z,0.50
2023-03-11T00:17:52.937Z,0.30
2023-03-11T00:20:32.148Z,0.60
2023-03-11T00:22:59.936Z,0.30
2023-03-11T00:25:29.714Z,0.53
2023-03-11T00:27:57.462Z,0.70
2023-03-11T00:30:25.825Z,0.50
2023-03-11T00:32:54.819Z,0.70
2023-03-11T00:35:25.304Z,0.30
2023-03-11T00:37:55.805Z,0.37
2023-03-11T00:40:25.536Z,0.30
2023-03-11T00:42:55.834Z,0.30
2023-03-11T00:45:23.305Z,0.43
2023-03-11T00:47:52.177Z,0.53
2023-03-11T00:50:25.205Z,0.30
2023-03-11T00:52:53.883Z,0.20
2023-03-11T00:55:29.452Z,0.33
2023-03-11T00:58:00.216Z,0.30
2023-03-11T01:00:31.872Z,0.30
2023-03-11T01:03:00.106Z,0.53
2023-03-11T01:05:30.875Z,0.20
2023-03-11T01:07:58.449Z,0.50
2023-03-11T01:10:27.550Z,0.40
2023-03-11T01:12:54.782Z,0.40
2023-03-11T01:15:29.439Z,0.40
2023-03-11T01:17:56.451Z,0.23
2023-03-11T01:20:23.766Z,0.37
2023-03-11T01:22:50.721Z,0.20
2023-03-11T01:25:19.938Z,0.30
2023-03-11T01:27:47.025Z,0.60
2023-03-11T01:30:19.083Z,0.20
2023-03-11T01:32:46.378Z,0.30
2023-03-11T01:35:15.921Z,0.40
2023-03-11T01:37:43.263Z,0.37
2023-03-11T01:40:19.284Z,0.43
2023-03-11T01:42:46.541Z,0.40
2023-03-11T01:45:31.347Z,0.47
2023-03-11T01:47:58.549Z,0.50
2023-03-11T01:50:27.861Z,0.50
2023-03-11T01:52:54.863Z,0.30
2023-03-11T01:55:21.961Z,0.30
2023-03-11T01:57:50.854Z,0.30
2023-03-11T02:00:18.502Z,0.30
2023-03-11T02:02:55.819Z,0.43
2023-03-11T02:05:24.483Z,0.50
2023-03-11T02:07:55.128Z,0.30
2023-03-11T02:10:26.611Z,0.30
2023-03-11T02:12:54.658Z,0.43
2023-03-11T02:15:26.168Z,0.50
2023-03-11T02:17:56.394Z,0.47
2023-03-11T02:20:43.893Z,0.30
2023-03-11T02:23:16.125Z,0.23
2023-03-11T02:25:54.760Z,0.40
2023-03-11T02:28:23.181Z,0.40
2023-03-11T02:30:51.801Z,0.40
2023-03-11T02:33:20.234Z,0.40
2023-03-11T02:35:48.443Z,0.20
2023-03-11T02:38:15.910Z,0.40
2023-03-11T02:40:53.972Z,0.37
2023-03-11T02:43:33.672Z,0.37
2023-03-11T02:46:01.996Z,0.43
2023-03-11T02:48:30.466Z,0.40
2023-03-11T02:50:57.982Z,0.27
2023-03-11T02:53:28.659Z,0.30
2023-03-11T02:55:55.575Z,0.40
2023-03-11T02:58:22.549Z,0.33
2023-03-11T03:00:49.752Z,0.30
2023-03-11T03:03:18.760Z,0.30
2023-03-11T03:05:47.013Z,0.50
2023-03-11T03:08:14.600Z,0.30
2023-03-11T03:10:42.184Z,0.50
2023-03-11T03:13:09.088Z,0.40
2023-03-11T03:15:36.100Z,0.40
2023-03-11T03:18:02.995Z,0.37
2023-03-11T03:20:29.840Z,0.27
2023-03-11T03:22:59.801Z,0.30
2023-03-11T03:25:29.715Z,0.33
2023-03-11T03:27:59.468Z,0.40
2023-03-11T03:30:29.372Z,0.20
2023-03-11T03:32:56.875Z,0.40
2023-03-11T03:35:23.969Z,0.40
2023-03-11T03:38:02.455Z,0.40
2023-03-11T03:40:29.598Z,0.33
2023-03-11T03:42:58.927Z,0.30
2023-03-11T03:45:26.668Z,0.37
2023-03-11T03:47:54.083Z,0.30
2023-03-11T03:50:23.563Z,0.40
2023-03-11T03:52:52.664Z,0.50
2023-03-11T03:55:21.618Z,0.50
2023-03-11T03:57:48.820Z,0.30
2023-03-11T04:00:17.894Z,0.40
2023-03-11T04:02:49.457Z,0.50
2023-03-11T04:05:26.867Z,0.50
2023-03-11T04:07:54.906Z,0.50
2023-03-11T04:10:23.017Z,0.40
2023-03-11T04:12:50.512Z,0.33
2023-03-11T04:15:17.639Z,0.60
2023-03-11T04:17:44.938Z,0.40
2023-03-11T04:20:13.213Z,0.40
2023-03-11T04:22:43.132Z,0.23
2023-03-11T04:25:10.241Z,0.40
2023-03-11T04:27:38.631Z,0.40
2023-03-11T04:30:07.472Z,0.40
2023-03-11T04:32:34.826Z,0.20
2023-03-11T04:35:04.209Z,0.50
2023-03-11T04:37:31.461Z,0.30
2023-03-11T04:39:58.408Z,0.30
2023-03-11T04:42:25.377Z,0.37
2023-03-11T04:44:53.622Z,0.40
2023-03-11T04:47:22.164Z,0.30
2023-03-11T04:49:49.128Z,0.30
2023-03-11T04:52:16.802Z,0.43
2023-03-11T04:54:43.671Z,0.40
2023-03-11T04:57:10.757Z,0.43
2023-03-11T04:59:41.576Z,0.40
2023-03-11T05:02:11.717Z,0.20
2023-03-11T05:04:42.711Z,0.40
2023-03-11T05:07:09.657Z,0.20
2023-03-11T05:09:37.359Z,0.40
2023-03-11T05:12:05.293Z,0.40
2023-03-11T05:14:34.459Z,0.50
2023-03-11T05:17:01.659Z,0.33
2023-03-11T05:19:32.152Z,0.47
2023-03-11T05:22:03.384Z,0.20
2023-03-11T05:24:31.359Z,0.47
2023-03-11T05:26:59.230Z,0.33
2023-03-11T05:29:26.467Z,0.40
2023-03-11T05:31:54.301Z,0.50
2023-03-11T05:34:21.385Z,0.30
2023-03-11T05:36:48.643Z,0.40
2023-03-11T05:39:16.583Z,0.73
2023-03-11T05:41:43.768Z,0.30
2023-03-11T05:44:11.094Z,0.30
2023-03-11T05:46:38.068Z,0.40
2023-03-11T05:49:06.813Z,0.50
2023-03-11T05:51:33.683Z,0.47
2023-03-11T05:54:00.639Z,0.53
2023-03-11T05:56:36.030Z,0.50
2023-03-11T05:59:03.514Z,0.60
2023-03-11T06:01:34.069Z,0.33
2023-03-11T06:04:01.636Z,0.40
2023-03-11T06:06:29.086Z,0.57
2023-03-11T06:08:56.495Z,0.50
2023-03-11T06:11:27.100Z,0.30
2023-03-11T06:13:55.796Z,0.43
2023-03-11T06:16:25.869Z,0.50
2023-03-11T06:18:54.677Z,0.30
2023-03-11T06:21:24.050Z,0.50
2023-03-11T06:23:50.981Z,0.50
2023-03-11T06:26:21.152Z,0.70
2023-03-11T06:28:49.035Z,0.50
2023-03-11T06:31:19.693Z,0.50
2023-03-11T06:33:48.577Z,0.50
2023-03-11T06:36:18.173Z,0.90
2023-03-11T06:38:46.834Z,0.67
2023-03-11T06:41:16.036Z,1.20
2023-03-11T06:43:43.424Z,0.70
2023-03-11T06:46:18.703Z,0.80
2023-03-11T06:48:47.079Z,1.03
2023-03-11T06:51:16.331Z,0.83
2023-03-11T06:53:44.129Z,0.80
2023-03-11T06:56:13.704Z,1.00
2023-03-11T06:58:46.806Z,1.10
2023-03-11T07:01:17.192Z,1.10
2023-03-11T07:03:46.954Z,1.00
2023-03-11T07:06:16.691Z,0.97
2023-03-11T07:08:44.179Z,1.10
2023-03-11T07:11:20.170Z,1.00
2023-03-11T07:13:50.358Z,0.80
2023-03-11T07:16:21.540Z,0.70
2023-03-11T07:18:51.708Z,0.97
2023-03-11T07:21:22.309Z,0.83
2023-03-11T07:23:54.290Z,0.60
2023-03-11T07:26:22.183Z,0.60
2023-03-11T07:28:52.914Z,0.70
2023-03-11T07:31:31.417Z,0.70
2023-03-11T07:34:00.894Z,0.93
2023-03-11T07:36:28.757Z,0.80
2023-03-11T07:39:04.818Z,0.87
2023-03-11T07:41:34.566Z,0.63
2023-03-11T07:44:04.800Z,0.80
2023-03-11T07:46:33.391Z,0.90
2023-03-11T07:49:02.265Z,0.80
2023-03-11T07:51:31.983Z,0.97
2023-03-11T07:54:00.545Z,0.70
2023-03-11T07:56:32.640Z,0.77
2023-03-11T07:59:00.964Z,0.70
2023-03-11T08:01:36.668Z,0.83
2023-03-11T08:04:06.418Z,1.00
2023-03-11T08:06:35.265Z,0.70
2023-03-11T08:09:08.846Z,0.90
2023-03-11T08:11:36.837Z,0.63
2023-03-11T08:14:04.352Z,0.67
2023-03-11T08:16:31.930Z,0.67
2023-03-11T08:18:58.824Z,0.80
2023-03-11T08:21:28.894Z,0.80
2023-03-11T08:24:01.112Z,0.70
2023-03-11T08:26:28.612Z,0.80
2023-03-11T08:28:56.627Z,0.87
2023-03-11T08:31:30.782Z,0.77
2023-03-11T08:34:03.726Z,0.90
2023-03-11T08:36:32.267Z,0.90
2023-03-11T08:38:59.832Z,0.70
2023-03-11T08:41:26.857Z,0.80
2023-03-11T08:43:54.120Z,0.90
2023-03-11T08:46:25.778Z,0.80
2023-03-11T08:48:53.771Z,0.67
2023-03-11T08:51:21.870Z,0.63
2023-03-11T08:53:49.080Z,0.67
2023-03-11T08:56:16.380Z,0.80
2023-03-11T08:58:43.437Z,0.70
2023-03-11T09:01:12.325Z,0.90
2023-03-11T09:03:40.049Z,0.70
2023-03-11T09:06:10.102Z,0.70
2023-03-11T09:08:37.359Z,0.90
2023-03-11T09:11:05.569Z,0.90
2023-03-11T09:13:33.183Z,0.90
2023-03-11T09:16:00.248Z,0.67
2023-03-11T09:18:28.660Z,0.67
2023-03-11T09:20:59.365Z,0.77
2023-03-11T09:23:26.647Z,0.60
2023-03-11T09:25:53.616Z,0.80
2023-03-11T09:28:20.597Z,0.63
2023-03-11T09:30:47.423Z,0.90
2023-03-11T09:33:14.443Z,1.20
2023-03-11T09:35:41.592Z,0.63
2023-03-11T09:38:08.462Z,0.60
2023-03-11T09:41:02.741Z,0.67
2023-03-11T09:43:55.924Z,0.70
2023-03-11T09:46:30.813Z,0.70
2023-03-11T09:49:35.068Z,0.70
2023-03-11T09:52:09.822Z,0.57
2023-03-11T09:54:45.649Z,0.70
2023-03-11T09:57:18.090Z,0.70
2023-03-11T09:59:46.871Z,0.80
2023-03-11T10:02:19.027Z,1.07
2023-03-11T10:04:57.490Z,1.23
2023-03-11T10:07:31.573Z,0.87
2023-03-11T10:10:00.119Z,0.60
2023-03-11T10:12:56.119Z,0.80
2023-03-11T10:15:37.763Z,0.73
2023-03-11T10:18:34.450Z,0.83
2023-03-11T10:21:04.409Z,0.60
2023-03-11T10:23:43.105Z,0.97
2023-03-11T10:26:19.845Z,0.70
2023-03-11T10:28:51.895Z,0.77
2023-03-11T10:31:24.875Z,0.73
2023-03-11T10:34:06.378Z,0.60
2023-03-11T10:36:42.044Z,0.77
2023-03-11T10:39:12.021Z,0.77
2023-03-11T10:41:53.829Z,0.70
2023-03-11T10:44:34.321Z,0.80
2023-03-11T10:47:02.612Z,0.70
2023-03-11T10:49:30.337Z,0.80
2023-03-11T10:51:58.171Z,0.70
2023-03-11T10:54:35.232Z,0.83
2023-03-11T10:57:19.176Z,0.70
2023-03-11T10:59:50.694Z,0.60
2023-03-11T11:02:26.149Z,0.60
2023-03-11T11:05:16.409Z,0.40
2023-03-11T11:07:45.900Z,0.50
2023-03-11T11:10:29.163Z,0.60
2023-03-11T11:13:17.850Z,0.50
2023-03-11T11:15:57.834Z,0.47
2023-03-11T11:18:42.218Z,0.33
2023-03-11T11:21:14.925Z,0.30
2023-03-11T11:23:49.028Z,0.40
2023-03-11T11:26:18.676Z,0.67
2023-03-11T11:28:46.334Z,0.50
2023-03-11T11:31:26.480Z,0.90
2023-03-11T11:33:56.254Z,0.67
2023-03-11T11:36:30.675Z,0.60
2023-03-11T11:39:00.127Z,0.37
2023-03-11T11:41:29.728Z,0.63
2023-03-11T11:44:01.349Z,0.43
2023-03-11T11:46:38.451Z,0.40
2023-03-11T11:49:20.683Z,0.50
2023-03-11T11:52:00.929Z,0.50
2023-03-11T11:54:38.606Z,0.63
2023-03-11T11:57:21.819Z,0.50
2023-03-11T11:59:49.061Z,0.37
2023-03-11T12:02:28.592Z,0.50
2023-03-11T12:05:27.781Z,0.50
2023-03-11T12:08:13.337Z,0.30
2023-03-11T12:10:43.279Z,0.73
2023-03-11T12:13:29.204Z,0.40
2023-03-11T12:16:06.115Z,0.47
2023-03-11T12:18:35.274Z,0.50
2023-03-11T12:21:29.978Z,0.57
2023-03-11T12:24:26.448Z,0.53
2023-03-11T12:26:59.239Z,0.73
2023-03-11T12:29:32.807Z,0.70
2023-03-11T12:32:01.966Z,0.60
2023-03-11T12:34:31.418Z,0.50
2023-03-11T12:37:03.411Z,0.57
2023-03-11T12:39:34.524Z,0.50
2023-03-11T12:42:25.349Z,0.30
2023-03-11T12:44:53.903Z,0.60
2023-03-11T12:47:22.580Z,0.40
2023-03-11T12:50:16.856Z,0.50
2023-03-11T12:52:54.019Z,0.60
2023-03-11T12:55:30.210Z,0.40
2023-03-11T12:58:35.357Z,0.37
2023-03-11T13:01:17.580Z,0.30
2023-03-11T13:03:55.712Z,0.20
2023-03-11T13:06:44.944Z,0.20
2023-03-11T13:09:17.467Z,0.27
2023-03-11T13:11:48.928Z,0.33
2023-03-11T13:14:23.935Z,0.20
2023-03-11T13:16:51.165Z,0.30
2023-03-11T13:19:26.982Z,0.23
2023-03-11T13:21:59.959Z,0.30
2023-03-11T13:24:27.227Z,0.50
2023-03-11T13:27:00.847Z,0.20
2023-03-11T13:30:00.637Z,0.30
2023-03-11T13:32:30.320Z,0.10
2023-03-11T13:34:57.188Z,0.20
2023-03-11T13:37:50.585Z,0.20
2023-03-11T13:40:42.423Z,0.40
2023-03-11T13:43:16.963Z,0.40
2023-03-11T13:46:01.189Z,0.30
2023-03-11T13:49:03.992Z,0.20
2023-03-11T13:51:47.480Z,0.17
2023-03-11T13:54:20.794Z,0.30
2023-03-11T13:56:55.054Z,0.37
2023-03-11T13:59:27.131Z,0.40
2023-03-11T14:02:00.476Z,0.40
2023-03-11T14:04:30.712Z,0.27
2023-03-11T14:06:58.788Z,0.30
2023-03-11T14:09:27.771Z,0.70
2023-03-11T14:12:03.366Z,2.07
2023-03-11T14:14:53.451Z,1.63
2023-03-11T14:17:21.368Z,0.40
2023-03-11T14:20:10.639Z,0.23
2023-03-11T14:22:38.599Z,0.20
2023-03-11T14:25:10.143Z,0.43
2023-03-11T14:27:53.690Z,0.30
2023-03-11T14:30:24.466Z,0.20
2023-03-11T14:33:04.819Z,0.30
2023-03-11T14:35:33.799Z,0.10
2023-03-11T14:38:01.442Z,0.30
2023-03-11T14:40:34.148Z,0.20
2023-03-11T14:43:07.088Z,0.13
2023-03-11T14:45:37.687Z,0.20
2023-03-11T14:48:19.515Z,0.20
2023-03-11T14:50:49.550Z,0.20
2023-03-11T14:53:25.298Z,0.33
2023-03-11T14:55:56.468Z,0.50
2023-03-11T14:58:43.898Z,0.30
2023-03-11T15:01:15.051Z,0.30
2023-03-11T15:03:49.296Z,0.80
2023-03-11T15:06:19.998Z,0.40
2023-03-11T15:09:06.355Z,0.37
2023-03-11T15:11:55.326Z,0.37
2023-03-11T15:14:27.079Z,0.50
2023-03-11T15:16:55.651Z,0.40
2023-03-11T15:19:28.945Z,0.30
2023-03-11T15:21:59.830Z,0.23
2023-03-11T15:24:31.407Z,0.37
2023-03-11T15:27:08.992Z,0.40
2023-03-11T15:29:37.051Z,0.40
2023-03-11T15:32:32.210Z,0.90
2023-03-11T15:35:04.623Z,1.43
2023-03-11T15:37:31.749Z,1.20
2023-03-11T15:40:12.374Z,0.90
2023-03-11T15:42:39.869Z,0.40
2023-03-11T15:45:20.528Z,0.50
2023-03-11T15:47:50.830Z,0.40
2023-03-11T15:50:24.979Z,1.17
2023-03-11T15:52:55.344Z,4.30
2023-03-11T15:55:23.794Z,4.80
2023-03-11T15:57:59.422Z,5.33
2023-03-11T16:00:26.697Z,3.27
2023-03-11T16:02:54.866Z,2.20
2023-03-11T16:05:24.628Z,0.80
2023-03-11T16:07:52.955Z,0.60
2023-03-11T16:10:22.702Z,0.40
2023-03-11T16:12:50.624Z,0.60
2023-03-11T16:15:28.705Z,0.40
2023-03-11T16:18:00.915Z,0.87
2023-03-11T16:20:32.441Z,1.57
2023-03-11T16:23:01.696Z,0.53
2023-03-11T16:25:38.087Z,0.30
2023-03-11T16:28:05.987Z,0.53
2023-03-11T16:30:35.036Z,0.40
2023-03-11T16:33:04.784Z,0.43
2023-03-11T16:35:33.173Z,0.40
2023-03-11T16:38:00.487Z,0.63
2023-03-11T16:40:29.419Z,0.43
2023-03-11T16:43:01.037Z,0.50
2023-03-11T16:45:28.724Z,0.53
2023-03-11T16:47:55.656Z,0.50
2023-03-11T16:50:24.518Z,0.30
2023-03-11T16:52:52.608Z,0.60
2023-03-11T16:55:20.082Z,0.60
2023-03-11T16:57:47.098Z,0.30
2023-03-11T17:00:14.907Z,0.40
2023-03-11T17:02:42.074Z,0.30
2023-03-11T17:05:09.958Z,0.20
2023-03-11T17:07:39.411Z,0.50
2023-03-11T17:10:07.962Z,1.20
2023-03-11T17:12:36.130Z,2.47
2023-03-11T17:15:05.764Z,4.33
2023-03-11T17:17:32.695Z,4.50
2023-03-11T17:19:59.490Z,2.77
2023-03-11T17:22:26.394Z,0.70
2023-03-11T17:24:53.524Z,0.57
2023-03-11T17:27:20.695Z,0.50
2023-03-11T17:29:47.611Z,0.50
2023-03-11T17:32:17.617Z,0.40
2023-03-11T17:34:44.756Z,0.50
2023-03-11T17:37:11.736Z,0.50
2023-03-11T17:39:38.696Z,0.50
2023-03-11T17:42:05.828Z,0.40
2023-03-11T17:44:48.497Z,0.57
2023-03-11T17:47:20.181Z,0.33
2023-03-11T17:49:48.455Z,0.40
2023-03-11T17:52:15.464Z,0.60
2023-03-11T17:54:42.353Z,0.50
2023-03-11T17:57:09.215Z,0.60
2023-03-11T17:59:36.203Z,0.57
2023-03-11T18:02:03.571Z,0.50
2023-03-11T18:04:30.516Z,0.60
2023-03-11T18:06:57.329Z,0.80
2023-03-11T18:09:24.278Z,0.73
2023-03-11T18:11:51.118Z,0.80
2023-03-11T18:14:17.970Z,0.57
2023-03-11T18:16:44.924Z,0.60
2023-03-11T18:19:11.754Z,0.60
2023-03-11T18:21:38.744Z,0.70
2023-03-11T18:24:06.132Z,0.60
2023-03-11T18:26:33.062Z,0.70
2023-03-11T18:29:00.605Z,0.73
2023-03-11T18:31:29.248Z,1.03
2023-03-11T18:33:59.550Z,0.70
2023-03-11T18:36:29.329Z,0.80
2023-03-11T18:38:58.352Z,0.80
2023-03-11T18:41:26.894Z,0.90
2023-03-11T18:43:57.846Z,0.70
2023-03-11T18:46:26.653Z,0.80
2023-03-11T18:48:54.825Z,0.90
2023-03-11T18:51:21.730Z,1.43
2023-03-11T18:53:48.679Z,0.80
2023-03-11T18:56:17.116Z,0.83
2023-03-11T18:58:44.586Z,0.93
2023-03-11T19:01:15.277Z,1.00
2023-03-11T19:03:43.700Z,0.80
2023-03-11T19:06:12.703Z,1.03
2023-03-11T19:08:40.452Z,0.93
2023-03-11T19:11:08.875Z,0.73
2023-03-11T19:13:46.766Z,0.50
2023-03-11T19:16:16.696Z,1.00
2023-03-11T19:18:43.883Z,0.90
2023-03-11T19:21:16.160Z,0.87
2023-03-11T19:23:44.130Z,0.80
2023-03-11T19:26:11.385Z,0.60
2023-03-11T19:28:38.771Z,0.80
2023-03-11T19:31:06.238Z,1.10
2023-03-11T19:33:33.430Z,1.07
2023-03-11T19:36:02.534Z,1.10
2023-03-11T19:38:29.913Z,0.77
2023-03-11T19:41:05.837Z,1.10
2023-03-11T19:43:33.777Z,1.00
2023-03-11T19:46:00.766Z,0.97
2023-03-11T19:48:27.693Z,0.80
2023-03-11T19:50:55.083Z,0.90
2023-03-11T19:53:23.079Z,0.90
2023-03-11T19:55:55.057Z,0.80
2023-03-11T19:58:24.061Z,0.70
2023-03-11T20:00:51.753Z,1.10
2023-03-11T20:03:20.947Z,1.57
2023-03-11T20:05:49.699Z,1.43
2023-03-11T20:08:20.064Z,1.20
2023-03-11T20:10:50.103Z,1.60
2023-03-11T20:13:20.329Z,1.90
2023-03-11T20:15:48.459Z,1.80
2023-03-11T20:18:15.993Z,1.70
2023-03-11T20:20:44.715Z,1.40
2023-03-11T20:23:12.133Z,1.40
2023-03-11T20:25:40.994Z,1.67
2023-03-11T20:28:08.626Z,1.10
2023-03-11T20:30:38.296Z,1.20
2023-03-11T20:33:06.076Z,1.40
2023-03-11T20:35:33.904Z,1.50
2023-03-11T20:38:00.896Z,1.30
2023-03-11T20:40:27.998Z,1.50
2023-03-11T20:42:54.955Z,1.27
2023-03-11T20:45:22.369Z,1.00
2023-03-11T20:47:50.771Z,1.20
2023-03-11T20:50:18.321Z,1.23
2023-03-11T20:52:45.500Z,1.33
2023-03-11T20:55:13.283Z,1.40
2023-03-11T20:57:40.925Z,1.37
2023-03-11T21:00:11.741Z,1.53
2023-03-11T21:02:40.594Z,1.33
2023-03-11T21:05:08.982Z,1.37
2023-03-11T21:07:36.548Z,1.47
2023-03-11T21:10:05.644Z,1.13
2023-03-11T21:12:32.684Z,1.23
2023-03-11T21:14:59.725Z,1.43
2023-03-11T21:17:26.719Z,1.50
2023-03-11T21:19:53.594Z,1.40
2023-03-11T21:22:20.878Z,1.47
2023-03-11T21:24:52.449Z,1.50
2023-03-11T21:27:26.207Z,1.50
2023-03-11T21:29:54.761Z,1.77
2023-03-11T21:32:23.113Z,1.60
2023-03-11T21:34:50.477Z,1.70
2023-03-11T21:37:17.390Z,1.53
2023-03-11T21:39:44.401Z,1.40
2023-03-11T21:42:11.486Z,1.27
2023-03-11T21:44:39.772Z,1.37
2023-03-11T21:47:06.735Z,1.63
2023-03-11T21:49:34.091Z,1.80
2023-03-11T21:52:02.398Z,1.47
2023-03-11T21:54:29.566Z,1.63
2023-03-11T21:56:56.656Z,1.30
2023-03-11T21:59:25.577Z,1.60
2023-03-11T22:01:53.076Z,1.57
2023-03-11T22:04:20.524Z,1.40
2023-03-11T22:06:47.622Z,1.10
2023-03-11T22:09:14.835Z,1.43
2023-03-11T22:11:41.843Z,1.30
2023-03-11T22:14:08.876Z,1.37
2023-03-11T22:16:35.857Z,1.37
2023-03-11T22:19:05.438Z,1.30
2023-03-11T22:21:32.382Z,0.90
2023-03-11T22:23:59.278Z,1.10
2023-03-11T22:26:26.389Z,1.30
2023-03-11T22:28:53.344Z,1.10
2023-03-11T22:31:20.481Z,1.30
2023-03-11T22:33:47.592Z,0.90
2023-03-11T22:36:15.904Z,1.20
2023-03-11T22:38:45.016Z,1.10
2023-03-11T22:41:14.529Z,1.07
2023-03-11T22:43:41.840Z,1.27
2023-03-11T22:46:08.987Z,1.10
2023-03-11T22:48:36.254Z,1.50
2023-03-11T22:51:03.671Z,1.10
2023-03-11T22:53:30.942Z,1.60
2023-03-11T22:55:58.252Z,1.40
2023-03-11T22:58:25.191Z,1.33
2023-03-11T23:00:52.006Z,1.50
2023-03-11T23:03:19.078Z,1.37
2023-03-11T23:05:46.892Z,1.90
2023-03-11T23:08:16.395Z,1.60
2023-03-11T23:10:45.529Z,1.73
2023-03-11T23:13:12.791Z,1.67
2023-03-11T23:15:41.812Z,1.60
2023-03-11T23:18:09.351Z,1.87
2023-03-11T23:20:37.704Z,1.57
2023-03-11T23:23:05.478Z,2.00
2023-03-11T23:25:33.367Z,1.97
2023-03-11T23:28:02.849Z,1.60
2023-03-11T23:30:29.878Z,1.83
2023-03-11T23:32:57.798Z,1.60
2023-03-11T23:35:24.718Z,1.50
2023-03-11T23:37:51.621Z,1.80
2023-03-11T23:40:19.157Z,2.20
2023-03-11T23:42:46.071Z,2.57
2023-03-11T23:45:12.931Z,3.60
2023-03-11T23:47:39.865Z,4.10
2023-03-11T23:50:07.184Z,4.20
2023-03-11T23:52:34.920Z,4.50
2023-03-11T23:55:01.930Z,4.53
2023-03-11T23:57:28.952Z,4.90
2023-03-11T23:59:55.915Z,5.60
